Time;durP1;ratioP1;P1;durP2;ratioP2;P2;SDS_P1;SDS_P2;PMS_P1;PMS_P2;Temp;Humidity;BMP_temperature;BMP_pressure;BME280_temperature;BME280_humidity;BME280_pressure;Samples;Min_cycle;Max_cycle;Signal;HPM_P1;HPM_P2
2023/10/05 00:02:00;;;;;;;1.38;0.70;;;20.90;77.40;;;;;;5031044;28;20480;-71
2023/10/05 00:04:29;;;;;;;1.95;0.40;;;;;;;;;;5030905;28;20100;-71
2023/10/05 00:06:59;;;;;;;1.92;0.70;;;;;;;;;;5031319;28;20068;-72
2023/10/05 00:09:25;;;;;;;2.00;0.68;;;;;;;;;;5031134;28;20068;-71
2023/10/05 00:11:55;;;;;;;1.55;0.60;;;;;;;;;;5031332;28;20423;-72
2023/10/05 00:14:21;;;;;;;2.33;0.77;;;;;;;;;;5030873;28;20056;-71
2023/10/05 00:16:48;;;;;;;2.25;0.45;;;;;;;;;;5013888;28;20038;-72
2023/10/05 00:19:21;;;;;;;1.90;0.60;;;20.90;77.40;;;;;;5031417;28;20046;-72
2023/10/05 00:21:51;;;;;;;1.80;0.52;;;20.90;77.50;;;;;;5031340;28;20033;-72
2023/10/05 00:24:24;;;;;;;1.83;0.63;;;20.90;77.50;;;;;;5031277;28;20089;-72
2023/10/05 00:26:50;;;;;;;2.00;0.63;;;;;;;;;;5031004;28;20539;-72
2023/10/05 00:29:28;;;;;;;4.40;0.60;;;;;;;;;;5031271;28;20113;-72
2023/10/05 00:32:00;;;;;;;2.72;0.90;;;;;;;;;;5031353;28;20041;-72
2023/10/05 00:35:08;;;;;;;1.50;0.63;;;;;;;;;;5029383;28;20030;-72
2023/10/05 00:37:35;;;;;;;4.32;1.08;;;;;;;;;;5032979;28;20495;-72
2023/10/05 00:40:05;;;;;;;3.33;0.73;;;20.80;77.60;;;;;;5035117;28;20426;-72
2023/10/05 00:42:31;;;;;;;3.63;0.82;;;;;;;;;;5034948;28;20127;-72
2023/10/05 00:45:01;;;;;;;2.97;0.80;;;;;;;;;;5034805;28;20037;-71
2023/10/05 00:47:28;;;;;;;2.70;1.00;;;;;;;;;;5034997;28;20425;-71
2023/10/05 00:49:58;;;;;;;3.60;0.98;;;;;;;;;;5034774;28;20633;-71
2023/10/05 00:52:24;;;;;;;1.50;0.80;;;;;;;;;;5034705;28;20037;-71
2023/10/05 00:54:56;;;;;;;3.90;0.68;;;20.80;77.40;;;;;;5034201;28;20165;-70
2023/10/05 00:57:24;;;;;;;1.38;0.50;;;;;;;;;;5034776;28;20037;-71
2023/10/05 01:02:31;;;;;;;3.03;0.88;;;;;;;;;;5034391;28;20092;-71
2023/10/05 01:05:01;;;;;;;2.47;0.70;;;;;;;;;;5034448;28;20459;-71
2023/10/05 01:14:52;;;;;;;1.27;0.50;;;;;;;;;;5033710;28;20443;-71
2023/10/05 01:17:25;;;;;;;1.63;0.70;;;20.80;72.10;;;;;;5034103;28;20064;-70
2023/10/05 01:20:12;;;;;;;3.13;0.70;;;20.80;77.80;;;;;;5033724;28;20041;-70
2023/10/05 01:22:39;;;;;;;3.55;0.80;;;;;;;;;;5034024;28;20049;-71
2023/10/05 01:25:07;;;;;;;2.55;0.50;;;20.70;77.60;;;;;;5033741;28;20041;-70
2023/10/05 01:27:36;;;;;;;2.20;0.63;;;;;;;;;;5033811;28;20057;-70
2023/10/05 01:30:06;;;;;;;1.85;0.70;;;;;;;;;;5033634;28;20041;-71
2023/10/05 01:32:33;;;;;;;2.42;0.90;;;;;;;;;;5017197;28;20469;-71
2023/10/05 01:35:00;;;;;;;4.18;0.88;;;;;;;;;;5016132;28;20061;-71
2023/10/05 01:37:31;;;;;;;1.58;0.43;;;;;;;;;;5015832;28;20041;-71
2023/10/05 01:40:00;;;;;;;2.38;0.77;;;;;;;;;;5016576;28;20073;-72
2023/10/05 01:42:30;;;;;;;1.02;0.65;;;;;;;;;;5016546;28;20038;-72
2023/10/05 01:44:56;;;;;;;3.30;0.80;;;;;;;;;;5016280;28;20112;-71
2023/10/05 01:47:23;;;;;;;2.50;0.75;;;;;;;;;;5015976;28;20042;-71
2023/10/05 01:49:50;;;;;;;3.53;0.93;;;;;;;;;;5014392;28;20488;-71
2023/10/05 01:52:16;;;;;;;2.47;0.82;;;;;;;;;;5016294;28;20049;-71
2023/10/05 01:54:44;;;;;;;2.45;0.70;;;20.70;77.70;;;;;;5015540;28;20041;-71
2023/10/05 01:57:13;;;;;;;2.80;0.90;;;;;;;;;;5015668;28;20057;-71
2023/10/05 01:59:41;;;;;;;1.30;0.50;;;;;;;;;;5015695;28;20045;-71
2023/10/05 02:02:10;;;;;;;2.80;0.85;;;;;;;;;;5016592;28;20061;-72
2023/10/05 02:04:44;;;;;;;1.80;0.60;;;;;;;;;;5033509;28;20034;-71
2023/10/05 02:07:21;;;;;;;2.10;0.77;;;;;;;;;;5033425;28;20060;-72
2023/10/05 02:09:49;;;;;;;2.50;0.85;;;;;;;;;;5033181;28;20128;-72
2023/10/05 02:12:33;;;;;;;1.83;0.70;;;;;;;;;;5032670;28;20030;-72
2023/10/05 02:15:19;;;;;;;1.85;0.80;;;;;;;;;;5012998;28;20046;-71
2023/10/05 02:18:13;;;;;;;2.13;0.55;;;;;;;;;;5012756;28;20057;-71
2023/10/05 02:20:56;;;;;;;3.65;1.02;;;;;;;;;;5011332;28;20042;-72
2023/10/05 02:23:41;;;;;;;1.63;0.90;;;;;;;;;;5011818;28;20034;-71
2023/10/05 02:28:58;;;;;;;2.72;1.00;;;;;;;;;;5012922;28;20073;-71
2023/10/05 02:34:21;;;;;;;1.58;0.57;;;;;;;;;;5012789;28;20052;-72
2023/10/05 02:37:19;;;;;;;2.10;0.65;;;;;;;;;;5012709;28;20084;-72
2023/10/05 02:39:45;;;;;;;1.70;0.80;;;;;;;;;;5012647;28;20046;-71
2023/10/05 02:42:31;;;;;;;3.38;0.82;;;;;;;;;;5012585;28;20098;-72
2023/10/05 02:45:20;;;;;;;2.38;0.80;;;;;;;;;;5012294;28;20052;-72
2023/10/05 02:48:06;;;;;;;2.53;0.90;;;20.50;72.40;;;;;;5011970;28;20022;-72
2023/10/05 02:50:52;;;;;;;1.52;0.77;;;;;;;;;;5012381;28;20504;-72
2023/10/05 02:53:41;;;;;;;1.88;0.50;;;;;;;;;;5012285;28;20026;-72
2023/10/05 02:56:27;;;;;;;2.85;0.70;;;;;;;;;;5012167;28;20400;-71
2023/10/05 02:59:15;;;;;;;3.05;1.00;;;;;;;;;;5012337;28;20034;-71
2023/10/05 03:02:06;;;;;;;2.30;0.80;;;;;;;;;;5011716;28;20092;-71
2023/10/05 03:04:46;;;;;;;2.47;0.90;;;;;;;;;;5011109;28;20533;-71
2023/10/05 03:07:31;;;;;;;3.08;1.00;;;;;;;;;;5011664;28;20042;-71
2023/10/05 03:10:00;;;;;;;1.27;0.55;;;;;;;;;;5012008;28;20061;-72
2023/10/05 03:12:27;;;;;;;3.17;0.75;;;;;;;;;;5011983;28;20109;-71
2023/10/05 03:14:54;;;;;;;1.48;0.55;;;;;;;;;;5011934;28;20550;-71
2023/10/05 03:17:21;;;;;;;1.40;0.70;;;;;;;;;;5011856;28;20112;-72
2023/10/05 03:19:51;;;;;;;3.05;0.85;;;20.60;77.60;;;;;;5011724;28;20056;-72
2023/10/05 03:22:35;;;;;;;2.20;0.70;;;;;;;;;;5010415;28;20628;-72
2023/10/05 03:25:02;;;;;;;2.15;0.90;;;;;;;;;;5011821;28;20121;-72
2023/10/05 03:27:30;;;;;;;1.92;0.68;;;;;;;;;;5012490;28;20396;-72
2023/10/05 03:30:03;;;;;;;2.08;0.77;;;;;;;;;;5011842;28;20514;-71
2023/10/05 03:32:30;;;;;;;1.45;0.77;;;;;;;;;;5011856;28;20042;-72
2023/10/05 03:34:57;;;;;;;1.95;0.80;;;;;;;;;;5011913;28;20113;-72
2023/10/05 03:37:24;;;;;;;4.22;0.60;;;;;;;;;;5011895;28;20041;-72
2023/10/05 03:39:54;;;;;;;1.80;0.80;;;;;;;;;;5011806;28;20053;-72
2023/10/05 03:42:23;;;;;;;1.27;0.55;;;;;;;;;;5011852;28;20041;-72
2023/10/05 03:45:00;;;;;;;2.95;0.95;;;;;;;;;;5011858;28;20468;-72
2023/10/05 03:47:27;;;;;;;2.28;0.88;;;;;;;;;;5011371;28;20101;-72
2023/10/05 03:49:56;;;;;;;2.55;1.08;;;;;;;;;;5011737;28;20071;-73
2023/10/05 03:52:29;;;;;;;2.03;1.13;;;20.60;75.70;;;;;;5011560;28;20041;-72
2023/10/05 03:55:05;;;;;;;4.63;1.45;;;20.70;78.60;;;;;;5012218;28;20407;-72
2023/10/05 03:57:32;;;;;;;3.45;1.70;;;;;;;;;;5011599;28;20030;-71
2023/10/05 03:59:59;;;;;;;3.60;1.83;;;;;;;;;;5011619;28;20049;-71
2023/10/05 04:02:25;;;;;;;3.03;2.63;;;;;;;;;;5011600;28;20049;-72
2023/10/05 04:04:52;;;;;;;4.60;4.00;;;;;;;;;;5011527;28;20437;-72
2023/10/05 04:07:21;;;;;;;5.30;4.75;;;;;;;;;;5011831;28;20092;-72
2023/10/05 04:09:47;;;;;;;7.28;6.63;;;;;;;;;;5011465;28;20069;-71
2023/10/05 05:06:08;;;;;;;25.80;23.60;;;;;;;;;;5034449;28;20025;-71
2023/10/05 05:08:38;;;;;;;25.35;23.02;;;;;;;;;;5034652;28;20409;-71
2023/10/05 05:11:18;;;;;;;25.33;23.02;;;20.50;79.10;;;;;;5034790;28;20037;-71
2023/10/05 05:13:46;;;;;;;23.77;21.67;;;20.50;78.70;;;;;;5033921;28;20068;-71
2023/10/05 05:16:14;;;;;;;23.80;21.70;;;20.50;77.60;;;;;;5033811;28;20146;-70
2023/10/05 05:18:42;;;;;;;22.83;20.83;;;20.50;76.70;;;;;;5033902;28;20030;-72
2023/10/05 05:21:10;;;;;;;21.42;19.52;;;;;;;;;;5034349;28;20042;-72
2023/10/05 05:23:36;;;;;;;21.27;19.35;;;;;;;;;;5033793;28;20034;-72
2023/10/05 05:26:09;;;;;;;20.92;19.02;;;;;;;;;;5033051;28;20065;-72
2023/10/05 05:28:37;;;;;;;18.90;17.30;;;20.50;75.70;;;;;;5034225;28;20034;-72
2023/10/05 05:31:16;;;;;;;19.05;17.45;;;20.40;73.40;;;;;;5033671;28;20041;-69
2023/10/05 05:33:44;;;;;;;18.48;16.88;;;20.50;76.60;;;;;;5033920;28;20034;-70
2023/10/05 05:36:12;;;;;;;18.15;16.45;;;20.50;78.90;;;;;;5034189;28;20057;-70
2023/10/05 05:38:39;;;;;;;16.98;15.45;;;20.50;76.50;;;;;;5033758;28;20044;-70
2023/10/05 05:41:12;;;;;;;15.88;14.48;;;20.50;73.50;;;;;;5033823;28;20436;-69
2023/10/05 05:43:41;;;;;;;14.75;13.35;;;20.20;76.90;;;;;;5033635;28;20037;-69
2023/10/05 05:46:14;;;;;;;14.40;13.10;;;20.40;78.60;;;;;;5033943;28;20447;-69
2023/10/05 05:48:52;;;;;;;12.60;11.40;;;20.40;79.00;;;;;;5033987;28;20109;-70
2023/10/05 05:51:21;;;;;;;12.32;11.23;;;;;;;;;;5033606;28;20037;-70
2023/10/05 05:53:48;;;;;;;11.90;10.75;;;;;;;;;;5033812;28;20042;-71
2023/10/05 05:56:18;;;;;;;11.38;10.27;;;20.40;76.10;;;;;;5040662;28;20053;-70
2023/10/05 05:58:47;;;;;;;10.35;9.35;;;20.50;73.40;;;;;;5053665;28;20083;-70
2023/10/05 06:01:14;;;;;;;10.43;9.43;;;;;;;;;;5053476;28;20407;-70
2023/10/05 06:03:48;;;;;;;9.23;8.30;;;20.40;79.20;;;;;;5053645;28;20029;-70
2023/10/05 06:06:16;;;;;;;9.05;8.23;;;20.50;75.70;;;;;;5053624;28;20033;-71
2023/10/05 06:08:43;;;;;;;9.15;7.65;;;;;;;;;;5053395;28;20031;-71
2023/10/05 06:11:10;;;;;;;7.25;6.55;;;;;;;;;;5053265;28;20048;-70
2023/10/05 06:13:40;;;;;;;7.20;6.50;;;;;;;;;;5053139;28;20037;-70
2023/10/05 06:16:10;;;;;;;6.38;5.88;;;;;;;;;;5053448;28;20613;-70
2023/10/05 06:18:37;;;;;;;6.70;6.05;;;;;;;;;;5053446;28;20070;-75
2023/10/05 06:21:04;;;;;;;6.15;5.53;;;20.30;76.80;;;;;;5053222;28;20055;-70
2023/10/05 06:23:34;;;;;;;5.75;5.25;;;20.40;79.10;;;;;;5052713;28;20025;-70
2023/10/05 06:26:01;;;;;;;5.57;4.97;;;;;;;;;;5053169;28;20160;-69
2023/10/05 06:28:28;;;;;;;4.55;4.15;;;;;;;;;;5053031;28;20029;-69
2023/10/05 06:30:54;;;;;;;5.22;4.13;;;;;;;;;;5052879;28;20041;-68
2023/10/05 06:33:21;;;;;;;4.95;4.28;;;;;;;;;;5052611;28;20490;-69
2023/10/05 06:35:47;;;;;;;6.25;3.75;;;;;;;;;;5052098;28;20037;-71
2023/10/05 06:38:15;;;;;;;3.60;3.30;;;;;;;;;;5052826;28;20029;-73
2023/10/05 06:40:42;;;;;;;3.78;3.42;;;;;;;;;;5052280;28;20056;-72
2023/10/05 06:43:09;;;;;;;5.93;3.17;;;;;;;;;;5034959;28;20468;-74
2023/10/05 06:45:39;;;;;;;3.20;2.90;;;;;;;;;;5034750;28;20051;-74
2023/10/05 06:48:06;;;;;;;4.15;2.53;;;;;;;;;;5035527;28;20411;-74
2023/10/05 06:50:33;;;;;;;4.70;2.78;;;;;;;;;;5052241;28;20226;-75
2023/10/05 06:52:59;;;;;;;3.08;2.42;;;;;;;;;;5052601;28;20118;-75
2023/10/05 06:55:28;;;;;;;3.42;2.35;;;;;;;;;;5034518;28;20044;-75
2023/10/05 06:57:54;;;;;;;2.33;2.13;;;;;;;;;;5035052;28;20053;-71
2023/10/05 07:00:21;;;;;;;2.97;2.08;;;;;;;;;;5034172;28;20045;-70
2023/10/05 07:02:53;;;;;;;2.90;1.92;;;20.30;79.40;;;;;;5034506;28;20391;-71
2023/10/05 07:05:20;;;;;;;2.97;1.63;;;;;;;;;;5019149;28;20044;-70
2023/10/05 07:07:46;;;;;;;2.33;1.33;;;;;;;;;;5034158;28;20041;-71
2023/10/05 07:10:15;;;;;;;2.03;1.40;;;20.40;79.70;;;;;;5034041;28;20072;-70
2023/10/05 07:12:44;;;;;;;2.33;1.40;;;20.30;79.20;;;;;;5018272;28;20542;-73
2023/10/05 07:15:11;;;;;;;3.08;1.80;;;;;;;;;;5018613;28;20033;-74
2023/10/05 07:17:37;;;;;;;2.88;1.55;;;;;;;;;;5033901;28;20033;-74
2023/10/05 07:20:05;;;;;;;2.60;1.52;;;20.50;79.00;;;;;;5033877;28;20056;-74
2023/10/05 07:22:31;;;;;;;4.13;1.30;;;;;;;;;;5017344;28;20032;-74
2023/10/05 07:24:59;;;;;;;1.13;0.85;;;;;;;;;;5033791;28;20047;-71
2023/10/05 07:27:25;;;;;;;3.28;1.20;;;;;;;;;;5033917;28;20063;-71
2023/10/05 07:29:52;;;;;;;2.72;1.15;;;;;;;;;;5034120;28;20060;-71
2023/10/05 07:32:18;;;;;;;1.67;1.13;;;;;;;;;;5033914;28;20041;-71
2023/10/05 07:34:45;;;;;;;4.47;1.20;;;;;;;;;;5034444;28;20491;-71
2023/10/05 07:37:11;;;;;;;6.45;1.23;;;;;;;;;;5034032;28;20091;-72
2023/10/05 07:39:40;;;;;;;2.38;1.13;;;20.50;79.90;;;;;;5033768;28;20121;-73
2023/10/05 07:42:10;;;;;;;1.92;1.00;;;20.50;79.90;;;;;;5051749;28;20435;-72
2023/10/05 07:44:37;;;;;;;1.70;1.20;;;20.30;79.60;;;;;;5051840;28;20089;-71
2023/10/05 07:47:07;;;;;;;1.60;0.75;;;20.50;77.30;;;;;;5050805;28;20415;-72
2023/10/05 07:49:55;;;;;;;2.47;1.00;;;20.50;80.00;;;;;;5049875;28;20399;-72
2023/10/05 07:52:21;;;;;;;3.17;1.00;;;;;;;;;;5051313;28;20037;-73
2023/10/05 07:54:48;;;;;;;1.30;0.80;;;;;;;;;;5051214;28;20082;-73
2023/10/05 07:57:15;;;;;;;1.20;0.90;;;;;;;;;;5051048;28;20681;-71
2023/10/05 07:59:42;;;;;;;3.90;1.42;;;20.40;79.70;;;;;;5051527;28;20061;-73
2023/10/05 08:02:08;;;;;;;5.13;1.05;;;;;;;;;;5051387;28;20123;-73
2023/10/05 08:04:35;;;;;;;2.08;1.02;;;;;;;;;;5051123;28;20087;-73
2023/10/05 08:07:02;;;;;;;2.88;1.20;;;;;;;;;;5050904;28;20515;-71
2023/10/05 08:09:30;;;;;;;2.67;0.90;;;;;;;;;;5052234;28;20125;-73
2023/10/05 08:11:59;;;;;;;4.40;1.00;;;;;;;;;;5052011;28;20394;-70
2023/10/05 08:14:27;;;;;;;5.82;1.20;;;20.50;79.80;;;;;;5051382;28;20079;-70
2023/10/05 08:16:58;;;;;;;1.67;1.00;;;;;;;;;;5050898;28;20407;-72
2023/10/05 08:19:25;;;;;;;5.57;1.25;;;;;;;;;;5050677;28;20041;-72
2023/10/05 08:21:55;;;;;;;1.85;0.73;;;;;;;;;;5051183;28;20041;-71
2023/10/05 08:24:38;;;;;;;4.97;1.13;;;;;;;;;;5049234;28;20025;-71
2023/10/05 08:27:06;;;;;;;2.95;1.08;;;;;;;;;;5050918;28;20116;-72
2023/10/05 08:29:34;;;;;;;2.22;0.93;;;;;;;;;;5051448;28;20036;-71
2023/10/05 08:32:00;;;;;;;2.20;1.05;;;;;;;;;;5050620;28;20095;-72
2023/10/05 08:34:32;;;;;;;1.85;0.88;;;;;;;;;;5051177;28;20044;-71
2023/10/05 08:36:58;;;;;;;3.35;1.02;;;;;;;;;;5051100;28;20104;-71
2023/10/05 08:39:25;;;;;;;8.05;1.20;;;;;;;;;;5050826;28;20036;-71
2023/10/05 08:41:57;;;;;;;5.07;0.90;;;;;;;;;;5050806;28;20037;-71
2023/10/05 08:44:27;;;;;;;3.03;1.10;;;;;;;;;;5050794;28;20479;-72
2023/10/05 08:46:55;;;;;;;1.88;0.95;;;20.50;78.60;;;;;;5051143;28;20120;-72
2023/10/05 08:49:23;;;;;;;3.65;0.88;;;20.60;80.10;;;;;;5050966;28;20037;-72
2023/10/05 08:51:50;;;;;;;2.25;1.17;;;;;;;;;;5050595;28;20025;-72
2023/10/05 08:54:21;;;;;;;3.58;1.15;;;;;;;;;;5050754;28;20116;-74
2023/10/05 08:56:48;;;;;;;4.38;1.30;;;20.60;77.00;;;;;;5050828;28;20080;-74
2023/10/05 08:59:15;;;;;;;4.28;1.08;;;;;;;;;;5053949;28;20185;-77
2023/10/05 09:01:42;;;;;;;5.85;1.00;;;;;;;;;;5055422;28;20064;-76
2023/10/05 09:04:23;;;;;;;3.78;1.00;;;20.70;80.40;;;;;;5055374;28;20028;-76
2023/10/05 09:06:59;;;;;;;4.03;0.90;;;20.40;75.10;;;;;;5054557;28;20037;-77
2023/10/05 09:09:39;;;;;;;1.95;0.70;;;20.70;75.10;;;;;;5054573;28;20388;-74
2023/10/05 09:12:34;;;;;;;2.97;1.02;;;20.60;75.30;;;;;;5054060;28;20118;-77
2023/10/05 09:15:22;;;;;;;3.83;1.02;;;20.60;75.10;;;;;;5054407;28;20025;-73
2023/10/05 09:20:32;;;;;;;;;;;20.90;76.50;;;;;;5054691;28;20132;-72
2023/10/05 09:23:04;;;;;;;2.92;1.00;;;20.60;80.60;;;;;;5054182;28;19951;-74
2023/10/05 09:25:35;;;;;;;2.72;0.90;;;20.60;75.30;;;;;;5054048;28;20472;-74
2023/10/05 09:28:16;;;;;;;3.35;1.10;;;;;;;;;;5054259;28;20464;-71
2023/10/05 09:30:59;;;;;;;3.45;0.93;;;20.70;75.10;;;;;;5054173;28;20037;-70
2023/10/05 09:33:27;;;;;;;3.17;1.20;;;20.70;80.40;;;;;;5053827;28;20056;-71
2023/10/05 09:36:01;;;;;;;3.17;1.10;;;;;;;;;;5053803;28;20025;-70
2023/10/05 09:38:30;;;;;;;4.88;1.13;;;20.60;80.70;;;;;;5054195;28;20040;-71
2023/10/05 09:41:02;;;;;;;4.50;1.10;;;20.60;80.60;;;;;;5053481;28;20450;-72
2023/10/05 09:43:37;;;;;;;1.98;0.88;;;20.70;80.70;;;;;;5054251;28;20087;-71
2023/10/05 09:46:09;;;;;;;3.75;1.10;;;20.60;77.80;;;;;;5036431;28;20056;-70
2023/10/05 09:48:37;;;;;;;2.15;0.80;;;20.40;80.50;;;;;;5053640;28;20043;-71
2023/10/05 09:51:06;;;;;;;4.28;1.08;;;20.70;78.90;;;;;;5053843;28;20030;-71
2023/10/05 09:53:35;;;;;;;2.95;0.95;;;20.70;80.70;;;;;;5053632;28;20060;-70
2023/10/05 09:56:01;;;;;;;3.10;1.20;;;20.70;78.70;;;;;;5053397;28;20107;-70
2023/10/05 09:58:28;;;;;;;4.35;1.10;;;20.50;80.90;;;;;;5053573;28;20033;-71
2023/10/05 10:00:56;;;;;;;4.43;1.25;;;20.70;80.80;;;;;;5053508;28;20079;-71
2023/10/05 10:03:23;;;;;;;2.85;1.27;;;20.70;77.70;;;;;;5053824;28;20048;-74
2023/10/05 10:06:12;;;;;;;3.00;0.80;;;20.80;75.40;;;;;;5053786;28;20537;-73
2023/10/05 10:09:08;;;;;;;2.53;1.08;;;20.60;80.80;;;;;;5051039;28;20109;-74
2023/10/05 10:11:35;;;;;;;3.55;1.50;;;20.80;80.50;;;;;;5053274;28;20033;-74
2023/10/05 10:14:05;;;;;;;2.33;1.08;;;20.70;81.00;;;;;;5052970;28;20452;-78
2023/10/05 10:16:39;;;;;;;4.32;1.23;;;20.80;75.80;;;;;;5053330;28;20040;-73
2023/10/05 10:19:08;;;;;;;3.88;1.10;;;20.80;81.10;;;;;;5053102;28;20116;-73
2023/10/05 10:21:46;;;;;;;4.47;1.55;;;20.80;75.70;;;;;;5053073;28;20052;-71
2023/10/05 10:24:17;;;;;;;5.28;1.20;;;20.80;81.00;;;;;;5053360;28;20063;-71
2023/10/05 10:27:07;;;;;;;3.38;1.23;;;20.80;75.60;;;;;;5053217;28;20037;-71
2023/10/05 10:29:49;;;;;;;4.55;0.90;;;20.90;75.60;;;;;;5053028;28;20037;-75
2023/10/05 10:32:19;;;;;;;2.55;1.17;;;20.60;81.20;;;;;;5052743;28;20179;-73
2023/10/05 10:34:56;;;;;;;2.08;0.88;;;20.80;75.70;;;;;;5053118;28;20384;-74
2023/10/05 10:37:49;;;;;;;4.50;1.13;;;20.90;75.70;;;;;;5051220;28;20071;-73
2023/10/05 10:43:06;;;;;;;3.63;1.15;;;20.90;75.50;;;;;;5052420;28;20044;-72
2023/10/05 10:45:44;;;;;;;4.53;1.25;;;20.90;75.70;;;;;;5052622;28;20503;-72
2023/10/05 10:48:20;;;;;;;3.42;1.08;;;20.90;81.30;;;;;;5052082;28;20029;-69
2023/10/05 10:50:52;;;;;;;3.97;1.25;;;21.00;81.00;;;;;;5052324;28;20181;-69
2023/10/05 10:53:19;;;;;;;2.83;0.88;;;;;;;;;;5052031;28;20487;-70
2023/10/05 10:56:03;;;;;;;5.47;1.20;;;21.00;75.40;;;;;;5052114;28;20128;-71
2023/10/05 10:58:31;;;;;;;4.63;1.45;;;21.10;80.80;;;;;;5052229;28;20392;-70
2023/10/05 11:01:22;;;;;;;2.67;1.20;;;21.10;79.00;;;;;;5052273;28;20421;-73
2023/10/05 11:03:55;;;;;;;2.50;0.90;;;21.10;75.60;;;;;;5052502;28;20060;-73
2023/10/05 11:06:26;;;;;;;2.85;0.88;;;;;;;;;;5052142;28;20067;-73
2023/10/05 11:09:10;;;;;;;2.30;0.90;;;;;;;;;;5051194;28;20116;-72
2023/10/05 11:11:53;;;;;;;2.05;0.77;;;;;;;;;;5051448;28;20037;-72
2023/10/05 11:14:42;;;;;;;2.75;1.00;;;21.10;77.80;;;;;;5051871;28;20391;-73
2023/10/05 11:17:30;;;;;;;2.65;0.90;;;;;;;;;;5051598;28;20471;-73
2023/10/05 11:20:26;;;;;;;2.85;0.82;;;21.20;75.60;;;;;;5051060;28;20403;-73
2023/10/05 11:23:11;;;;;;;6.25;1.35;;;;;;;;;;5051531;28;20072;-72
2023/10/05 11:26:17;;;;;;;2.03;0.70;;;;;;;;;;5051442;28;20483;-72
2023/10/05 11:28:43;;;;;;;2.95;0.88;;;;;;;;;;5051594;28;20033;-72
2023/10/05 11:31:34;;;;;;;2.25;0.93;;;;;;;;;;5051323;28;20029;-72
2023/10/05 11:34:19;;;;;;;4.72;0.80;;;21.20;81.30;;;;;;5050716;28;20112;-72
2023/10/05 11:36:47;;;;;;;3.20;1.08;;;;;;;;;;5058121;28;20090;-71
2023/10/05 11:39:39;;;;;;;4.05;1.10;;;;;;;;;;5051562;28;20041;-71
2023/10/05 11:42:05;;;;;;;2.58;0.80;;;21.10;79.00;;;;;;5051589;28;20037;-72
2023/10/05 11:44:32;;;;;;;2.65;1.00;;;;;;;;;;5051620;28;20029;-72
2023/10/05 11:46:58;;;;;;;1.88;0.73;;;;;;;;;;5051468;28;20037;-72
2023/10/05 11:49:31;;;;;;;3.33;0.82;;;;;;;;;;5051416;28;20036;-72
2023/10/05 11:51:58;;;;;;;4.45;0.90;;;;;;;;;;5051501;28;20344;-72
2023/10/05 11:54:25;;;;;;;4.93;1.38;;;21.20;79.50;;;;;;5051341;28;20492;-71
2023/10/05 11:56:54;;;;;;;2.47;0.77;;;21.30;75.50;;;;;;5051075;28;20114;-72
2023/10/05 11:59:28;;;;;;;2.87;0.90;;;21.20;75.70;;;;;;5051052;28;20036;-72
2023/10/05 12:01:55;;;;;;;3.85;0.90;;;;;;;;;;5051228;28;20091;-72
2023/10/05 12:04:23;;;;;;;3.70;1.00;;;;;;;;;;5051050;28;20108;-72
2023/10/05 12:06:58;;;;;;;3.35;1.60;;;;;;;;;;5051342;28;20049;-71
2023/10/05 12:09:30;;;;;;;1.95;1.00;;;21.50;77.80;;;;;;5051236;28;20041;-72
2023/10/05 12:11:58;;;;;;;3.95;0.98;;;;;;;;;;5050934;28;20041;-70
2023/10/05 12:14:27;;;;;;;1.95;0.80;;;21.90;77.80;;;;;;5050859;28;20565;-72
2023/10/05 12:16:57;;;;;;;2.95;0.98;;;;;;;;;;5050737;28;20484;-72
2023/10/05 12:19:29;;;;;;;4.30;0.90;;;;;;;;;;5050809;28;20045;-72
2023/10/05 12:22:00;;;;;;;4.60;1.20;;;22.00;73.90;;;;;;5050736;28;20491;-72
2023/10/05 12:24:30;;;;;;;1.73;0.80;;;;;;;;;;5050741;28;20036;-72
2023/10/05 12:26:59;;;;;;;3.15;0.95;;;;;;;;;;5050989;28;20033;-72
2023/10/05 12:29:27;;;;;;;3.05;1.25;;;;;;;;;;5051065;28;20037;-72
2023/10/05 12:32:00;;;;;;;1.88;0.73;;;;;;;;;;5051214;28;20461;-72
2023/10/05 12:34:27;;;;;;;3.28;1.00;;;;;;;;;;5054447;28;20044;-72
2023/10/05 12:36:53;;;;;;;2.67;0.85;;;;;;;;;;5054304;28;20047;-72
2023/10/05 12:39:20;;;;;;;1.98;1.20;;;;;;;;;;5054494;28;20495;-72
2023/10/05 12:41:48;;;;;;;1.92;0.88;;;22.80;77.00;;;;;;5054175;28;20110;-72
2023/10/05 12:44:15;;;;;;;4.25;1.38;;;;;;;;;;5054485;28;20037;-72
2023/10/05 12:46:48;;;;;;;5.38;1.20;;;23.00;71.60;;;;;;5054614;28;20048;-72
2023/10/05 12:49:17;;;;;;;9.23;1.15;;;23.10;71.60;;;;;;5054802;28;20406;-72
2023/10/05 12:51:45;;;;;;;4.85;1.20;;;23.40;77.30;;;;;;5054268;28;20526;-72
2023/10/05 12:54:28;;;;;;;3.58;1.00;;;;;;;;;;5054378;28;20041;-73
2023/10/05 12:56:55;;;;;;;2.42;1.10;;;23.10;74.50;;;;;;5054270;28;20128;-72
2023/10/05 12:59:22;;;;;;;4.15;1.10;;;;;;;;;;5054566;28;20065;-72
2023/10/05 13:01:49;;;;;;;3.33;1.38;;;;;;;;;;5054390;28;20049;-72
2023/10/05 13:04:16;;;;;;;7.95;1.63;;;23.00;76.30;;;;;;5054119;28;20060;-72
2023/10/05 13:06:44;;;;;;;4.40;1.65;;;22.90;78.30;;;;;;5053950;28;20041;-73
2023/10/05 13:09:12;;;;;;;5.55;1.63;;;23.10;77.00;;;;;;5054167;28;20440;-73
2023/10/05 13:11:39;;;;;;;4.32;1.77;;;22.70;78.10;;;;;;5054516;28;20055;-74
2023/10/05 13:14:08;;;;;;;6.10;2.20;;;;;;;;;;5054244;28;20025;-74
2023/10/05 13:16:35;;;;;;;4.78;1.40;;;;;;;;;;5054168;28;20048;-74
2023/10/05 13:19:06;;;;;;;5.90;1.77;;;22.70;76.40;;;;;;5054114;28;20032;-72
2023/10/05 13:21:32;;;;;;;7.68;2.00;;;;;;;;;;5054191;28;20048;-73
2023/10/05 13:23:58;;;;;;;5.88;1.70;;;;;;;;;;5054114;28;20029;-72
2023/10/05 13:26:26;;;;;;;2.97;1.50;;;;;;;;;;5054167;28;20465;-72
2023/10/05 13:28:53;;;;;;;3.45;1.35;;;;;;;;;;5053558;28;20033;-72
2023/10/05 13:31:20;;;;;;;2.78;1.10;;;;;;;;;;5053836;28;20041;-72
2023/10/05 13:33:48;;;;;;;3.25;1.30;;;24.70;77.00;;;;;;5053618;28;20036;-72
2023/10/05 13:36:14;;;;;;;4.43;1.40;;;;;;;;;;5053513;28;20160;-73
2023/10/05 13:38:43;;;;;;;1.35;0.90;;;;;;;;;;5053551;28;20041;-72
2023/10/05 13:41:18;;;;;;;4.00;0.90;;;;;;;;;;5053640;28;20427;-73
2023/10/05 13:43:47;;;;;;;6.72;1.40;;;;;;;;;;5052774;28;20044;-72
2023/10/05 13:46:16;;;;;;;5.13;1.40;;;;;;;;;;5053126;28;20040;-69
2023/10/05 13:48:43;;;;;;;3.35;1.02;;;22.60;77.80;;;;;;5053385;28;20033;-69
2023/10/05 13:51:15;;;;;;;2.05;0.90;;;22.60;77.50;;;;;;5053271;28;20037;-69
2023/10/05 13:53:46;;;;;;;2.97;0.90;;;22.50;80.00;;;;;;5053595;28;20128;-68
2023/10/05 13:56:14;;;;;;;4.57;0.95;;;22.50;79.00;;;;;;5053060;28;20095;-68
2023/10/05 13:58:46;;;;;;;4.45;1.00;;;22.50;80.20;;;;;;5053423;28;20029;-69
2023/10/05 14:01:15;;;;;;;2.47;1.00;;;;;;;;;;5053011;28;20051;-68
2023/10/05 14:03:58;;;;;;;4.68;1.20;;;;;;;;;;5051680;28;20170;-70
2023/10/05 14:06:28;;;;;;;1.67;0.70;;;;;;;;;;5053141;28;20524;-70
2023/10/05 14:08:57;;;;;;;3.30;1.10;;;;;;;;;;5052925;28;20601;-69
2023/10/05 14:11:24;;;;;;;3.28;1.20;;;;;;;;;;5053135;28;20372;-69
2023/10/05 14:13:50;;;;;;;4.68;1.02;;;;;;;;;;5052966;28;20037;-68
2023/10/05 14:16:18;;;;;;;3.83;1.13;;;;;;;;;;5052523;28;20029;-68
2023/10/05 14:18:44;;;;;;;3.85;1.27;;;;;;;;;;5052696;28;20040;-68
2023/10/05 14:21:11;;;;;;;2.28;0.90;;;;;;;;;;5052518;28;20051;-74
2023/10/05 14:23:37;;;;;;;3.08;1.20;;;;;;;;;;5052469;28;20101;-72
2023/10/05 14:26:04;;;;;;;3.22;1.00;;;;;;;;;;5052805;28;20087;-73
2023/10/05 14:28:30;;;;;;;4.60;1.25;;;;;;;;;;5052837;28;20048;-74
2023/10/05 14:30:57;;;;;;;3.10;1.00;;;;;;;;;;5052542;28;20071;-74
2023/10/05 14:33:23;;;;;;;1.63;0.85;;;;;;;;;;5052257;28;20044;-73
2023/10/05 14:35:56;;;;;;;2.88;0.90;;;23.30;77.30;;;;;;5052388;28;20095;-72
2023/10/05 14:38:36;;;;;;;1.80;1.00;;;;;;;;;;5050294;28;20112;-72
2023/10/05 14:41:02;;;;;;;3.50;0.80;;;;;;;;;;5052384;28;20476;-72
2023/10/05 14:43:34;;;;;;;4.88;1.33;;;;;;;;;;5052437;28;20033;-72
2023/10/05 14:46:00;;;;;;;1.67;1.10;;;;;;;;;;5052326;28;20037;-72
2023/10/05 14:48:32;;;;;;;1.70;0.90;;;23.60;71.20;;;;;;5052025;28;20037;-72
2023/10/05 14:51:01;;;;;;;1.60;1.00;;;23.60;70.80;;;;;;5051960;28;20110;-72
2023/10/05 14:53:29;;;;;;;5.60;1.00;;;;;;;;;;5051870;28;20081;-72
2023/10/05 14:55:57;;;;;;;2.47;0.80;;;;;;;;;;5051565;28;20041;-73
2023/10/05 14:58:25;;;;;;;2.05;0.90;;;23.70;73.80;;;;;;5052339;28;20380;-72
2023/10/05 15:00:52;;;;;;;2.50;1.00;;;23.70;76.20;;;;;;5051837;28;20071;-73
2023/10/05 15:03:22;;;;;;;2.58;1.08;;;23.80;70.60;;;;;;5051987;28;20387;-72
2023/10/05 15:05:48;;;;;;;3.03;1.03;;;;;;;;;;5052283;28;20036;-73
2023/10/05 15:08:15;;;;;;;2.60;1.10;;;;;;;;;;5051858;28;20442;-73
2023/10/05 15:10:41;;;;;;;2.33;1.00;;;;;;;;;;5052108;28;20411;-74
2023/10/05 15:13:08;;;;;;;3.03;1.00;;;;;;;;;;5033832;28;20548;-73
2023/10/05 15:15:34;;;;;;;2.25;1.08;;;;;;;;;;5051704;28;20040;-72
2023/10/05 15:18:01;;;;;;;2.22;0.90;;;;;;;;;;5051798;28;20037;-72
2023/10/05 15:20:28;;;;;;;2.38;0.93;;;;;;;;;;5051580;28;20507;-72
2023/10/05 15:22:54;;;;;;;2.20;0.98;;;;;;;;;;5051718;28;20044;-72
2023/10/05 15:25:22;;;;;;;6.57;1.05;;;23.40;76.10;;;;;;5051413;28;20041;-72
2023/10/05 15:27:50;;;;;;;2.15;0.75;;;23.30;76.50;;;;;;5051641;28;20108;-72
2023/10/05 15:30:17;;;;;;;2.28;1.02;;;23.30;74.00;;;;;;5052012;28;20385;-71
2023/10/05 15:32:50;;;;;;;5.28;1.02;;;23.30;71.00;;;;;;5051375;28;20025;-72